Time;durP1;ratioP1;P1;durP2;ratioP2;P2;SDS_P1;SDS_P2;PMS_P1;PMS_P2;Temp;Humidity;BMP_temperature;BMP_pressure;BME280_temperature;BME280_humidity;BME280_pressure;Samples;Min_cycle;Max_cycle;Signal;HPM_P1;HPM_P2
2021/03/12 00:00:38;;;;;;;93.33;38.65;;;;;;;4.46;69.34;98496.05;147816;1144;104463;-73
2021/03/12 00:03:45;;;;;;;539.53;225.27;;;;;;;4.51;68.96;98499.87;147849;1144;104547;-73
2021/03/12 00:06:48;;;;;;;256.98;89.15;;;;;;;4.55;69.70;98496.92;147835;1144;104539;-73
2021/03/12 00:09:51;;;;;;;102.97;40.48;;;;;;;4.55;69.27;98484.54;147892;1144;104578;-73
2021/03/12 00:12:54;;;;;;;112.77;46.53;;;;;;;4.54;69.37;98488.15;147813;1142;104849;-73
2021/03/12 00:15:59;;;;;;;87.45;37.28;;;;;;;4.50;68.82;98489.45;147819;1143;104559;-75
2021/03/12 00:19:02;;;;;;;109.42;45.25;;;;;;;4.46;69.63;98480.20;147830;1144;104607;-70
2021/03/12 00:22:05;;;;;;;113.47;48.17;;;;;;;4.40;68.89;98484.30;147796;1144;104621;-73
2021/03/12 00:25:12;;;;;;;138.40;53.63;;;;;;;4.36;69.18;98487.41;147705;1144;104555;-71
2021/03/12 00:28:18;;;;;;;363.45;135.03;;;;;;;4.32;69.97;98506.20;147789;1145;104867;-73
2021/03/12 00:31:22;;;;;;;96.00;39.87;;;;;;;4.36;69.24;98492.70;147882;1144;104893;-72
2021/03/12 00:34:25;;;;;;;249.42;86.53;;;;;;;4.43;69.46;98501.66;147833;1143;104540;-72
2021/03/12 00:37:28;;;;;;;231.53;85.17;;;;;;;4.48;70.24;98501.99;147818;1144;104697;-75
2021/03/12 00:40:38;;;;;;;93.55;39.50;;;;;;;4.55;69.38;98489.82;147894;1144;104456;-74
2021/03/12 00:43:41;;;;;;;115.50;45.78;;;;;;;4.58;69.12;98480.74;147796;1143;104546;-72
2021/03/12 00:46:58;;;;;;;137.40;51.67;;;;;;;4.59;69.24;98469.20;147825;1144;104439;-75
2021/03/12 00:50:03;;;;;;;124.10;49.67;;;;;;;4.57;69.36;98477.28;147863;1144;104492;-73
2021/03/12 00:53:07;;;;;;;104.45;43.60;;;;;;;4.57;69.52;98487.84;147895;1144;104634;-73
2021/03/12 00:56:10;;;;;;;83.67;37.20;;;;;;;4.57;69.77;98484.39;147839;1143;104630;-74
2021/03/12 00:59:14;;;;;;;52.00;25.72;;;;;;;4.56;69.54;98496.77;147822;1144;104527;-73
2021/03/12 01:02:24;;;;;;;88.40;39.42;;;;;;;4.56;69.32;98493.28;147690;1143;104471;-72
2021/03/12 01:05:28;;;;;;;49.20;26.50;;;;;;;4.52;69.21;98496.26;147677;1143;104659;-73
2021/03/12 01:08:31;;;;;;;45.05;24.72;;;;;;;4.46;69.72;98496.86;147832;1144;104558;-74
2021/03/12 01:11:35;;;;;;;66.00;37.27;;;;;;;4.40;69.51;98496.67;147868;1144;104970;-72
2021/03/12 01:14:39;;;;;;;35.80;21.57;;;;;;;4.31;69.15;98495.79;147873;1142;104546;-75
2021/03/12 01:17:44;;;;;;;53.78;32.17;;;;;;;4.22;70.14;98494.93;147806;1143;104458;-73
2021/03/12 01:20:47;;;;;;;36.93;21.57;;;;;;;4.15;69.52;98493.89;147827;1144;104892;-74
2021/03/12 01:23:53;;;;;;;46.53;26.07;;;;;;;4.15;69.75;98490.42;147803;1144;104713;-75
2021/03/12 01:26:58;;;;;;;29.77;18.37;;;;;;;4.17;70.44;98502.48;147849;1143;104544;-73
2021/03/12 01:30:05;;;;;;;31.65;18.77;;;;;;;4.23;70.11;98493.92;147854;1142;104546;-76
2021/03/12 01:33:11;;;;;;;29.93;18.33;;;;;;;4.26;70.15;98492.81;147808;1144;104898;-75
2021/03/12 01:36:14;;;;;;;32.03;19.12;;;;;;;4.27;69.92;98490.02;147848;1143;104572;-73
2021/03/12 01:39:24;;;;;;;31.75;19.02;;;;;;;4.27;70.54;98489.17;147660;1144;104788;-73
2021/03/12 01:42:28;;;;;;;33.23;19.95;;;;;;;4.24;69.81;98490.32;147848;1144;104481;-75
2021/03/12 01:45:36;;;;;;;32.98;20.10;;;;;;;4.25;70.40;98489.35;147835;1144;104487;-75
2021/03/12 01:48:40;;;;;;;28.75;17.40;;;;;;;4.29;69.99;98482.77;147785;1143;104624;-75
2021/03/12 01:51:43;;;;;;;26.97;17.00;;;;;;;4.32;70.41;98477.16;147824;1144;104553;-75
2021/03/12 01:54:47;;;;;;;29.42;17.62;;;;;;;4.35;69.57;98480.47;147821;1144;104985;-75
2021/03/12 01:57:51;;;;;;;34.30;21.30;;;;;;;4.35;69.57;98485.75;147877;1145;104470;-72
2021/03/12 02:01:00;;;;;;;30.47;19.13;;;;;;;4.31;70.23;98491.36;147789;1144;104471;-72
2021/03/12 02:04:12;;;;;;;30.97;18.73;;;;;;;4.30;69.88;98496.79;147817;1143;104468;-74
2021/03/12 02:07:25;;;;;;;32.60;19.67;;;;;;;4.30;70.57;98507.35;147890;1144;104517;-75
2021/03/12 02:10:43;;;;;;;33.38;20.60;;;;;;;4.31;69.80;98515.13;147833;1144;104581;-73
2021/03/12 02:13:54;;;;;;;33.23;20.62;;;;;;;4.32;70.17;98506.20;147897;1143;104545;-73
2021/03/12 02:17:05;;;;;;;32.20;18.77;;;;;;;4.40;69.85;98501.95;147638;1143;104582;-74
2021/03/12 02:20:30;;;;;;;32.98;19.90;;;;;;;4.50;69.78;98500.88;147721;1143;104540;-72
2021/03/12 02:23:56;;;;;;;31.93;18.87;;;;;;;4.58;70.07;98508.01;147849;1144;104536;-74
2021/03/12 02:27:05;;;;;;;31.48;19.42;;;;;;;4.62;69.95;98498.78;147845;1144;104645;-75
2021/03/12 02:30:13;;;;;;;28.23;18.53;;;;;;;4.65;70.32;98503.72;147859;1142;104540;-73
2021/03/12 02:33:22;;;;;;;26.75;17.87;;;;;;;4.66;69.80;98494.01;147807;1144;104463;-72
2021/03/12 02:36:33;;;;;;;29.18;18.00;;;;;;;4.64;70.26;98486.23;147787;1144;104544;-74
2021/03/12 02:39:44;;;;;;;36.23;20.92;;;;;;;4.62;70.19;98496.14;147907;1143;104496;-73
2021/03/12 02:42:49;;;;;;;29.27;17.90;;;;;;;4.61;69.85;98496.28;147909;1144;104620;-74
2021/03/12 02:45:55;;;;;;;27.17;16.40;;;;;;;4.60;70.22;98498.11;147892;1144;104486;-73
2021/03/12 02:48:59;;;;;;;27.20;17.15;;;;;;;4.60;70.20;98489.34;147862;1144;104449;-75
2021/03/12 02:52:05;;;;;;;30.12;18.10;;;;;;;4.59;70.11;98499.08;147818;1144;104547;-76
2021/03/12 02:55:12;;;;;;;26.40;16.75;;;;;;;4.53;70.07;98503.18;147694;1143;104562;-75
2021/03/12 02:58:21;;;;;;;28.80;17.73;;;;;;;4.50;70.17;98503.52;147811;1143;104516;-75
2021/03/12 03:01:27;;;;;;;27.93;17.30;;;;;;;4.47;70.26;98502.99;147880;1144;104557;-73
2021/03/12 03:05:00;;;;;;;27.77;16.87;;;;;;;4.42;70.04;98507.91;147839;1143;104453;-73
2021/03/12 03:08:13;;;;;;;26.80;16.45;;;;;;;4.40;69.89;98507.23;147840;1144;105071;-73
2021/03/12 03:11:17;;;;;;;25.55;15.90;;;;;;;4.41;70.39;98503.62;147849;1143;104549;-72
2021/03/12 03:14:21;;;;;;;27.43;16.90;;;;;;;4.42;70.61;98497.34;147799;1143;104660;-72
2021/03/12 03:17:26;;;;;;;32.50;19.45;;;;;;;4.42;69.82;98499.98;147830;1142;104451;-73
2021/03/12 03:20:30;;;;;;;30.33;18.93;;;;;;;4.41;70.28;98507.09;147799;1143;104653;-73
2021/03/12 03:23:35;;;;;;;28.07;17.07;;;;;;;4.42;70.59;98499.98;147661;1144;104562;-72
2021/03/12 03:26:39;;;;;;;26.52;17.05;;;;;;;4.41;69.92;98500.98;147684;1143;104532;-71
2021/03/12 03:29:44;;;;;;;28.17;17.65;;;;;;;4.39;70.60;98500.29;147802;1144;104615;-71
2021/03/12 03:32:49;;;;;;;29.52;17.15;;;;;;;4.41;70.84;98501.81;147872;1144;104543;-72
2021/03/12 03:35:52;;;;;;;26.77;15.90;;;;;;;4.48;70.52;98502.84;147852;1144;104451;-75
2021/03/12 03:38:56;;;;;;;26.70;14.68;;;;;;;4.57;70.01;98513.44;147795;1145;104505;-73
2021/03/12 03:42:03;;;;;;;25.10;16.37;;;;;;;4.66;70.30;98518.61;147915;1143;104506;-73
2021/03/12 03:45:10;;;;;;;25.48;15.38;;;;;;;4.71;70.15;98515.48;147839;1144;104690;-75
2021/03/12 03:48:17;;;;;;;23.85;15.23;;;;;;;4.76;70.49;98512.38;147828;1144;104482;-73
2021/03/12 03:51:22;;;;;;;25.63;17.03;;;;;;;4.75;70.44;98522.09;147866;1144;104566;-76
2021/03/12 03:54:26;;;;;;;26.00;16.75;;;;;;;4.74;70.19;98531.03;147874;1144;104783;-78
2021/03/12 03:57:36;;;;;;;28.83;17.00;;;;;;;4.74;70.29;98527.56;147853;1144;104545;-75
2021/03/12 04:00:40;;;;;;;25.37;16.48;;;;;;;4.72;70.24;98541.75;147854;1143;104610;-79
2021/03/12 04:03:47;;;;;;;24.60;15.03;;;;;;;4.78;70.19;98550.86;147742;1144;104553;-73
2021/03/12 04:06:50;;;;;;;25.68;14.68;;;;;;;4.85;70.63;98556.33;147942;1143;104442;-73
2021/03/12 04:09:53;;;;;;;23.50;14.70;;;;;;;4.94;70.04;98558.02;147941;1145;104444;-74
2021/03/12 04:12:59;;;;;;;24.47;15.37;;;;;;;5.01;70.16;98553.77;147855;1144;104484;-75
2021/03/12 04:16:02;;;;;;;30.23;20.30;;;;;;;5.07;70.60;98558.41;147839;1143;104628;-78
2021/03/12 04:19:09;;;;;;;115.22;57.93;;;;;;;5.10;70.25;98568.67;147862;1144;104853;-73
2021/03/12 04:22:14;;;;;;;228.67;94.50;;;;;;;5.10;70.49;98558.09;147847;1143;104492;-73
2021/03/12 04:25:19;;;;;;;239.48;94.60;;;;;;;5.10;70.67;98549.34;147808;1144;104452;-74
2021/03/12 04:28:22;;;;;;;64.27;30.05;;;;;;;5.14;70.92;98541.90;147866;1144;104501;-76
2021/03/12 04:31:26;;;;;;;94.77;39.45;;;;;;;5.17;71.00;98533.66;147830;1143;104581;-71
2021/03/12 04:34:30;;;;;;;49.65;23.70;;;;;;;5.22;70.50;98534.02;147756;1143;104524;-74
2021/03/12 04:37:36;;;;;;;39.40;19.92;;;;;;;5.24;70.98;98540.78;147681;1144;104500;-73
2021/03/12 04:40:40;;;;;;;329.02;108.90;;;;;;;5.25;70.57;98552.19;147755;1143;104566;-73
2021/03/12 04:43:44;;;;;;;74.25;29.82;;;;;;;5.24;70.44;98550.55;147799;1144;104557;-77
2021/03/12 04:46:50;;;;;;;161.47;53.70;;;;;;;5.23;70.25;98556.80;147879;1144;104639;-74
2021/03/12 04:49:55;;;;;;;199.02;63.90;;;;;;;5.22;70.64;98563.09;147909;1144;104585;-74
2021/03/12 04:52:58;;;;;;;820.77;282.60;;;;;;;5.19;70.53;98571.34;147863;1144;104479;-74
2021/03/12 04:56:05;;;;;;;376.00;121.82;;;;;;;5.21;70.83;98578.11;147806;1143;104536;-74
2021/03/12 04:59:10;;;;;;;402.88;125.05;;;;;;;5.26;71.08;98572.36;147904;1143;104543;-74
2021/03/12 05:02:14;;;;;;;249.25;86.90;;;;;;;5.33;70.55;98585.76;147806;1144;104639;-74
2021/03/12 05:05:18;;;;;;;86.17;37.30;;;;;;;5.38;70.65;98583.47;147858;1144;104521;-76
2021/03/12 05:08:23;;;;;;;45.10;23.47;;;;;;;5.40;70.30;98597.36;147840;1143;104441;-74
2021/03/12 05:11:36;;;;;;;40.38;23.27;;;;;;;5.40;70.83;98607.94;147796;1144;104903;-73
2021/03/12 05:14:44;;;;;;;44.27;26.62;;;;;;;5.41;71.17;98609.58;147821;1144;104492;-72
2021/03/12 05:17:48;;;;;;;31.50;19.95;;;;;;;5.39;70.69;98615.05;147783;1144;104542;-72
2021/03/12 05:20:52;;;;;;;183.62;69.15;;;;;;;5.37;70.81;98618.83;147612;1144;104624;-72
2021/03/12 05:23:55;;;;;;;484.85;196.95;;;;;;;5.38;71.28;98628.44;147766;1144;104467;-73
2021/03/12 05:26:59;;;;;;;61.77;27.47;;;;;;;5.42;71.36;98627.94;147765;1144;104535;-74
2021/03/12 05:30:08;;;;;;;111.37;44.05;;;;;;;5.44;71.37;98615.38;147790;1143;104550;-73
2021/03/12 05:33:12;;;;;;;108.87;44.08;;;;;;;5.47;71.26;98606.31;147811;1144;104640;-74
2021/03/12 05:36:15;;;;;;;126.27;48.85;;;;;;;5.48;71.44;98594.73;147877;1144;104494;-74
2021/03/12 05:39:20;;;;;;;47.10;22.77;;;;;;;5.48;71.82;98595.55;147819;1144;104444;-74
2021/03/12 05:42:25;;;;;;;334.13;111.67;;;;;;;5.47;71.55;98604.48;147795;1144;104508;-76
2021/03/12 05:45:29;;;;;;;76.75;33.30;;;;;;;5.49;71.50;98594.58;147878;1143;104540;-71
2021/03/12 05:48:46;;;;;;;44.93;21.70;;;;;;;5.54;71.56;98598.55;147812;1144;104543;-72
2021/03/12 05:51:53;;;;;;;67.10;29.85;;;;;;;5.56;71.33;98607.97;147776;1143;104537;-71
2021/03/12 05:54:58;;;;;;;68.02;30.00;;;;;;;5.58;71.79;98606.02;147720;1144;104538;-73
2021/03/12 05:58:01;;;;;;;213.45;84.42;;;;;;;5.57;72.22;98624.70;147644;1143;104537;-72
2021/03/12 06:01:06;;;;;;;59.23;28.83;;;;;;;5.52;71.57;98627.80;147846;1143;104525;-72
2021/03/12 06:04:09;;;;;;;58.98;29.30;;;;;;;5.47;71.47;98633.59;147842;1142;104426;-74
2021/03/12 06:07:14;;;;;;;72.32;32.98;;;;;;;5.43;71.77;98629.61;147800;1143;104547;-75
2021/03/12 06:10:19;;;;;;;46.37;23.70;;;;;;;5.45;72.03;98632.92;147868;1144;104486;-74
2021/03/12 06:13:22;;;;;;;34.90;19.40;;;;;;;5.53;71.60;98628.66;147832;1145;104448;-74
2021/03/12 06:16:29;;;;;;;327.87;100.17;;;;;;;5.61;71.49;98621.55;147825;1144;104544;-74
2021/03/12 06:19:33;;;;;;;154.23;58.28;;;;;;;5.70;71.68;98640.94;147851;1143;104630;-74
2021/03/12 06:22:52;;;;;;;59.25;26.82;;;;;;;5.78;71.83;98653.36;147892;1143;104473;-71
2021/03/12 06:25:55;;;;;;;96.47;48.58;;;;;;;5.84;71.64;98652.71;147897;1143;104470;-78
2021/03/12 06:29:10;;;;;;;55.67;30.60;;;;;;;5.89;71.92;98650.42;147786;1143;105135;-73
2021/03/12 06:32:43;;;;;;;59.53;34.10;;;;;;;5.96;71.67;98656.72;147827;1144;104456;-72
2021/03/12 06:35:57;;;;;;;53.17;29.80;;;;;;;6.03;71.58;98667.51;147780;1143;104566;-73
2021/03/12 06:39:35;;;;;;;43.20;24.57;;;;;;;6.14;71.11;98669.00;147785;1144;104700;-76
2021/03/12 06:43:05;;;;;;;59.80;33.48;;;;;;;6.25;71.25;98673.98;147828;1144;104464;-74
2021/03/12 06:46:09;;;;;;;24.63;15.50;;;;;;;6.35;71.87;98679.11;147828;1144;105308;-74
2021/03/12 06:49:55;;;;;;;37.98;22.52;;;;;;;6.44;71.51;98683.43;147810;1144;104516;-73
2021/03/12 06:53:26;;;;;;;25.45;15.32;;;;;;;6.41;71.94;98689.05;147812;1143;104643;-73
2021/03/12 06:56:30;;;;;;;94.83;40.30;;;;;;;6.33;71.35;98686.40;147843;1144;104554;-77
2021/03/12 06:59:42;;;;;;;64.00;29.25;;;;;;;6.26;72.09;98700.31;147829;1143;104448;-70
2021/03/12 07:02:51;;;;;;;67.15;32.98;;;;;;;6.31;71.60;98699.80;147873;1144;105340;-76
2021/03/12 07:06:14;;;;;;;168.05;73.85;;;;;;;6.38;71.51;98702.64;147858;1143;104540;-73
2021/03/12 07:09:18;;;;;;;234.30;129.63;;;;;;;6.51;71.04;98705.63;147814;1143;104620;-75
2021/03/12 07:12:50;;;;;;;83.05;39.48;;;;;;;6.65;71.90;98712.91;147744;1143;104581;-77
2021/03/12 07:15:58;;;;;;;229.18;103.12;;;;;;;6.73;71.69;98720.03;147837;1144;104533;-78
2021/03/12 07:19:21;;;;;;;98.35;48.15;;;;;;;6.76;71.01;98732.14;147829;1144;104537;-72
2021/03/12 07:22:26;;;;;;;97.82;46.73;;;;;;;6.79;70.56;98739.75;147911;1144;104458;-74
2021/03/12 07:25:32;;;;;;;169.43;71.33;;;;;;;6.78;71.96;98740.76;147844;1142;104981;-73
2021/03/12 07:28:42;;;;;;;59.77;33.10;;;;;;;6.82;71.43;98742.90;147791;1142;104540;-71
2021/03/12 07:32:09;;;;;;;146.00;77.80;;;;;;;6.93;70.71;98747.05;147788;1144;104556;-73
2021/03/12 07:35:15;;;;;;;273.02;119.20;;;;;;;7.03;70.94;98750.34;148052;1142;104843;-73
2021/03/12 07:38:37;;;;;;;126.67;58.98;;;;;;;7.13;70.81;98755.47;147760;1144;104642;-71
2021/03/12 07:41:49;;;;;;;81.70;42.60;;;;;;;7.22;70.85;98756.30;147807;1144;104547;-72
2021/03/12 07:45:17;;;;;;;72.78;39.33;;;;;;;7.29;70.61;98757.26;147884;1144;104537;-72
2021/03/12 07:48:39;;;;;;;55.17;35.52;;;;;;;7.32;70.59;98767.55;147699;1143;104567;-75
2021/03/12 07:51:58;;;;;;;68.07;35.03;;;;;;;7.29;71.74;98765.22;147768;1142;104462;-72
2021/03/12 07:55:01;;;;;;;172.43;82.37;;;;;;;7.29;71.58;98775.83;147769;1144;104553;-72
2021/03/12 07:58:12;;;;;;;66.10;35.87;;;;;;;7.35;71.21;98780.48;147604;1142;104537;-70
2021/03/12 08:01:50;;;;;;;422.23;240.92;;;;;;;7.56;71.09;98784.41;147557;1143;104959;-71
2021/03/12 08:04:54;;;;;;;58.75;31.10;;;;;;;7.78;71.15;98774.90;147548;1144;104524;-70
2021/03/12 08:08:03;;;;;;;84.47;45.43;;;;;;;8.02;70.78;98781.92;147538;1144;104845;-69
2021/03/12 08:11:30;;;;;;;100.80;57.30;;;;;;;8.18;69.93;98786.33;147678;1143;104845;-69
2021/03/12 08:15:14;;;;;;;127.75;75.65;;;;;;;8.31;70.47;98783.11;147638;1144;104687;-72
2021/03/12 08:18:27;;;;;;;263.62;133.87;;;;;;;8.43;69.75;98789.73;147708;1144;104529;-70
2021/03/12 08:22:44;;;;;;;196.00;91.15;;;;;;;8.57;69.97;98791.63;147755;1144;104503;-70
2021/03/12 08:26:00;;;;;;;264.35;110.55;;;;;;;8.72;70.32;98796.17;147630;1143;104543;-69
2021/03/12 08:29:43;;;;;;;101.42;62.38;;;;;;;8.88;69.09;98793.41;147808;1144;104473;-69
2021/03/12 08:32:49;;;;;;;124.07;58.17;;;;;;;8.86;69.18;98805.23;147699;1144;104633;-69
2021/03/12 08:36:27;;;;;;;46.77;26.13;;;;;;;8.84;68.34;98802.75;147837;1143;104672;-72
2021/03/12 08:39:49;;;;;;;68.40;33.50;;;;;;;8.72;68.16;98818.30;147605;1143;104457;-69
2021/03/12 08:43:16;;;;;;;68.75;32.63;;;;;;;8.58;67.44;98832.33;147733;1143;104462;-69
2021/03/12 08:46:37;;;;;;;142.77;65.55;;;;;;;8.50;68.75;98822.56;147707;1143;104490;-69
2021/03/12 08:49:40;;;;;;;155.07;68.20;;;;;;;8.50;67.84;98837.70;147623;1143;104594;-74
2021/03/12 08:52:48;;;;;;;163.13;75.77;;;;;;;8.43;68.79;98837.58;147676;1144;104994;-71
2021/03/12 08:56:06;;;;;;;235.57;101.00;;;;;;;8.40;68.75;98841.36;147668;1144;104644;-75
2021/03/12 08:59:26;;;;;;;91.45;44.55;;;;;;;8.34;69.31;98833.27;147666;1144;105169;-72
2021/03/12 09:02:43;;;;;;;80.62;41.58;;;;;;;8.27;69.24;98851.72;147823;1144;104420;-72
2021/03/12 09:05:52;;;;;;;96.07;46.77;;;;;;;8.15;69.53;98853.94;147808;1144;104553;-70
2021/03/12 09:09:14;;;;;;;36.03;22.87;;;;;;;7.99;67.96;98854.00;148404;1143;104550;-65
2021/03/12 09:12:37;;;;;;;150.53;79.73;;;;;;;7.83;68.44;98866.33;147363;1142;104474;-69
2021/03/12 09:15:50;;;;;;;52.70;31.60;;;;;;;7.68;69.11;98870.67;147608;1144;104622;-75
2021/03/12 09:18:55;;;;;;;41.00;24.23;;;;;;;7.55;69.07;98878.33;147697;1143;104531;-71
2021/03/12 09:22:03;;;;;;;87.55;41.08;;;;;;;7.54;70.39;98876.65;147465;1144;104611;-72
2021/03/12 09:25:22;;;;;;;33.45;19.75;;;;;;;7.60;70.16;98875.97;147671;1144;104583;-70
2021/03/12 09:28:34;;;;;;;19.85;11.70;;;;;;;7.68;69.98;98886.61;147670;1143;104463;-71
2021/03/12 09:31:44;;;;;;;19.23;13.28;;;;;;;7.76;68.78;98889.23;147654;1144;104847;-70
2021/03/12 09:34:55;;;;;;;96.20;44.97;;;;;;;7.78;69.11;98892.55;147606;1144;104522;-70
2021/03/12 09:38:02;;;;;;;144.60;64.53;;;;;;;7.79;70.07;98888.88;147577;1144;104575;-71
2021/03/12 09:41:28;;;;;;;98.97;42.73;;;;;;;7.92;69.83;98887.55;147731;1144;104465;-72
2021/03/12 09:44:32;;;;;;;64.75;30.48;;;;;;;7.92;69.20;98898.17;147716;1143;104541;-70
2021/03/12 09:47:49;;;;;;;33.83;16.73;;;;;;;7.93;69.78;98892.70;147640;1144;104532;-69
2021/03/12 09:50:53;;;;;;;153.12;62.62;;;;;;;8.09;69.31;98893.66;147604;1144;104588;-71
2021/03/12 09:53:57;;;;;;;140.07;63.63;;;;;;;8.23;69.64;98907.03;147649;1144;104633;-70
2021/03/12 09:57:09;;;;;;;88.40;44.80;;;;;;;8.44;69.29;98903.84;147642;1144;104540;-70
2021/03/12 10:00:23;;;;;;;72.95;39.88;;;;;;;8.61;68.82;98906.44;147685;1143;104593;-70
2021/03/12 10:03:32;;;;;;;75.30;41.95;;;;;;;8.72;68.18;98910.52;147609;1143;104889;-70
2021/03/12 10:07:00;;;;;;;50.63;30.17;;;;;;;8.72;68.34;98895.41;147721;1144;104471;-69
2021/03/12 10:10:16;;;;;;;26.68;15.78;;;;;;;8.77;67.16;98900.20;147688;1143;104601;-70
2021/03/12 10:13:26;;;;;;;68.07;40.37;;;;;;;8.80;67.73;98899.86;147731;1144;104539;-73
2021/03/12 10:16:30;;;;;;;85.35;47.93;;;;;;;8.80;67.71;98902.52;147690;1143;104538;-72
2021/03/12 10:19:58;;;;;;;91.42;51.83;;;;;;;8.86;67.60;98907.13;147751;1144;104932;-73
2021/03/12 10:23:04;;;;;;;29.52;18.85;;;;;;;9.00;66.41;98914.34;147669;1144;104460;-72
2021/03/12 10:26:07;;;;;;;19.20;11.80;;;;;;;9.13;66.83;98912.95;147733;1144;104852;-73
2021/03/12 10:29:10;;;;;;;30.90;19.07;;;;;;;9.29;66.04;98918.15;147702;1144;104569;-73
2021/03/12 10:32:15;;;;;;;46.53;27.65;;;;;;;9.39;66.69;98921.42;147697;1145;104534;-71
2021/03/12 10:35:24;;;;;;;18.55;10.95;;;;;;;9.38;66.36;98921.59;147728;1144;104650;-73
2021/03/12 10:38:29;;;;;;;14.65;9.28;;;;;;;9.42;66.55;98922.89;147786;1144;104452;-73
2021/03/12 10:41:35;;;;;;;14.10;9.27;;;;;;;9.56;66.02;98935.41;147519;1142;104518;-73
2021/03/12 10:44:56;;;;;;;25.50;16.37;;;;;;;9.59;65.22;98928.91;147673;1143;104430;-71
2021/03/12 10:48:01;;;;;;;24.67;16.50;;;;;;;9.58;65.14;98937.90;147829;1144;104449;-71
2021/03/12 10:51:06;;;;;;;11.00;7.10;;;;;;;9.56;63.16;98937.25;147687;1143;104457;-75
2021/03/12 10:54:12;;;;;;;35.58;23.25;;;;;;;9.56;64.42;98937.25;147695;1142;104835;-78
2021/03/12 10:57:16;;;;;;;35.78;22.98;;;;;;;9.50;64.25;98945.95;147895;1144;104538;-73
2021/03/12 11:00:22;;;;;;;45.07;29.60;;;;;;;9.42;62.89;98945.00;147873;1143;104544;-70
2021/03/12 11:03:25;;;;;;;88.30;46.20;;;;;;;9.24;63.88;98941.83;147733;1143;104463;-73
2021/03/12 11:06:30;;;;;;;122.15;65.22;;;;;;;9.20;64.64;98954.66;147781;1144;104473;-76
2021/03/12 11:09:33;;;;;;;141.03;63.98;;;;;;;9.21;64.36;98950.16;149029;1142;104549;-73
2021/03/12 11:12:39;;;;;;;211.97;99.17;;;;;;;9.23;63.51;98951.63;147710;1143;104607;-73
2021/03/12 11:15:43;;;;;;;149.23;66.47;;;;;;;9.23;63.15;98951.63;147824;1143;104550;-72
2021/03/12 11:18:46;;;;;;;113.97;47.27;;;;;;;9.36;63.22;98948.38;147744;1144;104601;-75
2021/03/12 11:21:49;;;;;;;193.70;84.05;;;;;;;9.44;62.96;98948.31;147948;1143;104451;-71
2021/03/12 11:24:52;;;;;;;113.00;54.85;;;;;;;9.57;64.32;98949.58;147727;1143;104442;-69
2021/03/12 11:27:55;;;;;;;171.55;72.72;;;;;;;9.63;63.06;98949.67;147692;1144;104541;-71
2021/03/12 11:31:02;;;;;;;109.17;46.63;;;;;;;9.64;62.37;98961.14;147844;1144;104594;-68
2021/03/12 11:34:06;;;;;;;103.40;44.63;;;;;;;9.68;62.35;98959.80;147824;1143;104819;-70
2021/03/12 11:37:10;;;;;;;49.93;22.50;;;;;;;9.70;62.98;98960.45;147745;1143;104491;-74
2021/03/12 11:40:15;;;;;;;206.10;76.27;;;;;;;9.60;62.23;98962.52;147760;1144;104499;-71
2021/03/12 11:43:18;;;;;;;114.42;52.58;;;;;;;9.59;63.43;98971.53;147902;1142;104520;-72
2021/03/12 11:46:21;;;;;;;220.20;79.92;;;;;;;9.59;63.71;98971.53;148003;1144;105478;-74
2021/03/12 11:49:24;;;;;;;249.13;95.30;;;;;;;9.49;63.40;98976.23;147916;1144;104470;-73
2021/03/12 11:52:28;;;;;;;48.00;21.60;;;;;;;9.29;62.08;98976.70;147927;1144;104538;-71
2021/03/12 11:55:31;;;;;;;114.20;48.80;;;;;;;9.21;62.32;98977.59;147962;1144;104819;-72
2021/03/12 11:58:34;;;;;;;48.58;26.50;;;;;;;9.28;62.86;98975.07;147824;1142;104624;-72
2021/03/12 12:01:37;;;;;;;28.65;17.23;;;;;;;9.35;62.33;98975.17;147769;1144;104467;-70
2021/03/12 12:04:41;;;;;;;66.05;30.90;;;;;;;9.28;62.41;98988.37;147769;1143;104851;-68
2021/03/12 12:07:44;;;;;;;50.38;26.48;;;;;;;9.30;62.10;98978.38;147729;1144;104511;-73
2021/03/12 12:10:47;;;;;;;76.53;38.60;;;;;;;9.34;62.74;98976.20;147967;1143;104537;-71
2021/03/12 12:13:50;;;;;;;37.67;21.27;;;;;;;9.47;62.66;98994.23;147812;1144;104549;-72
2021/03/12 12:16:54;;;;;;;207.22;89.13;;;;;;;9.48;62.31;99006.55;147941;1143;104516;-75
2021/03/12 12:19:57;;;;;;;29.00;16.85;;;;;;;9.44;61.77;98998.91;147920;1144;104495;-74
2021/03/12 12:23:00;;;;;;;79.63;39.37;;;;;;;9.56;62.63;98993.99;147886;1144;104540;-76
2021/03/12 12:26:03;;;;;;;76.53;35.27;;;;;;;9.59;61.10;98993.66;147928;1143;104503;-75
2021/03/12 12:29:07;;;;;;;64.75;33.42;;;;;;;9.52;61.06;99006.01;147904;1143;104647;-72
2021/03/12 12:32:10;;;;;;;62.30;29.35;;;;;;;9.41;60.50;99001.94;148012;1144;104464;-71
2021/03/12 12:35:15;;;;;;;130.43;69.50;;;;;;;9.19;61.19;99008.88;147915;1144;104506;-73
2021/03/12 12:38:18;;;;;;;87.55;46.18;;;;;;;9.07;62.67;99010.28;147521;1144;104479;-73
2021/03/12 12:41:21;;;;;;;100.95;49.85;;;;;;;9.01;61.92;99014.46;148539;1142;104441;-70
2021/03/12 12:44:25;;;;;;;28.85;15.80;;;;;;;8.88;61.73;99016.84;147886;1143;104607;-73
2021/03/12 12:47:28;;;;;;;172.47;61.33;;;;;;;8.79;62.63;99012.55;147750;1143;104463;-72
2021/03/12 12:50:31;;;;;;;114.80;43.60;;;;;;;8.75;61.93;99011.25;147910;1145;104511;-69
2021/03/12 12:53:34;;;;;;;139.75;48.42;;;;;;;8.73;61.76;98997.30;148014;1144;104487;-70
2021/03/12 12:56:37;;;;;;;54.00;22.67;;;;;;;8.87;61.70;99009.03;149049;1142;104550;-70
2021/03/12 12:59:41;;;;;;;92.08;36.98;;;;;;;8.96;60.93;99000.02;147756;1144;104599;-72
2021/03/12 13:02:44;;;;;;;312.00;104.85;;;;;;;9.05;61.15;99017.61;147696;1144;104521;-72
2021/03/12 13:05:47;;;;;;;98.00;41.17;;;;;;;9.04;61.29;99000.83;147800;1143;104464;-71
2021/03/12 13:08:50;;;;;;;265.60;79.60;;;;;;;8.97;60.62;99015.81;147659;1143;104591;-71
2021/03/12 13:11:53;;;;;;;158.50;53.70;;;;;;;8.98;59.59;99006.81;147604;1145;104436;-73
2021/03/12 13:14:56;;;;;;;74.40;27.00;;;;;;;9.14;61.29;99013.06;147678;1144;104850;-69
2021/03/12 13:18:00;;;;;;;247.05;88.15;;;;;;;9.28;58.87;99030.14;147625;1143;104462;-73
2021/03/12 13:21:07;;;;;;;208.82;76.62;;;;;;;9.32;60.44;99029.61;147868;1143;104464;-72
2021/03/12 13:24:10;;;;;;;65.55;24.10;;;;;;;9.33;59.63;99036.58;147839;1142;104449;-73
2021/03/12 13:27:14;;;;;;;270.73;87.05;;;;;;;9.28;59.59;99049.59;147762;1142;104423;-73
2021/03/12 13:30:20;;;;;;;164.35;55.70;;;;;;;9.20;59.83;99029.17;147773;1143;104714;-72
2021/03/12 13:33:25;;;;;;;34.90;14.90;;;;;;;9.23;59.73;99027.98;147899;1144;104566;-74
2021/03/12 13:36:28;;;;;;;74.20;27.40;;;;;;;9.18;58.24;99047.16;147730;1144;104535;-80
2021/03/12 13:39:31;;;;;;;132.80;46.75;;;;;;;9.16;58.27;99046.50;147836;1144;104584;-76
2021/03/12 13:42:34;;;;;;;118.55;43.02;;;;;;;9.20;57.78;99044.33;147868;1144;104525;-72
2021/03/12 13:45:37;;;;;;;30.37;13.43;;;;;;;9.14;57.47;99055.64;147621;1144;104558;-70
2021/03/12 13:48:41;;;;;;;213.85;80.70;;;;;;;9.06;57.60;99053.02;147627;1144;104536;-71
2021/03/12 13:51:44;;;;;;;47.83;19.15;;;;;;;9.06;56.77;99053.84;147757;1145;104466;-71
2021/03/12 13:54:47;;;;;;;131.40;51.33;;;;;;;9.00;58.33;99060.69;147618;1144;104937;-71
2021/03/12 13:57:50;;;;;;;47.48;18.77;;;;;;;8.98;56.54;99062.69;147703;1143;104502;-73
2021/03/12 14:00:54;;;;;;;78.57;30.93;;;;;;;8.92;56.10;99071.36;147757;1143;104519;-69
2021/03/12 14:03:57;;;;;;;83.03;37.38;;;;;;;8.90;58.37;99078.69;147821;1143;104517;-72
2021/03/12 14:07:01;;;;;;;41.97;19.50;;;;;;;8.96;57.11;99082.50;147903;1144;104457;-72
2021/03/12 14:10:05;;;;;;;75.37;35.13;;;;;;;8.99;57.72;99080.33;147714;1143;104466;-70
2021/03/12 14:13:08;;;;;;;26.55;13.58;;;;;;;8.93;56.78;99077.50;147740;1143;104551;-69